sensor_id;sensor_type;location;lat;lon;timestamp;pressure;altitude;pressure_sealevel;temperature;humidity
3150;BME280;32503;47.748;8.960;2022-11-24T00:01:03;96362.81;;;9.37;70.26
3150;BME280;32503;47.748;8.960;2022-11-24T00:03:32;96359.25;;;9.33;70.89
3150;BME280;32503;47.748;8.960;2022-11-24T00:06:04;96357.72;;;9.32;71.03
3150;BME280;32503;47.748;8.960;2022-11-24T00:08:32;96360.69;;;9.27;71.06
3150;BME280;32503;47.748;8.960;2022-11-24T00:11:03;96356.13;;;9.31;71.04
3150;BME280;32503;47.748;8.960;2022-11-24T00:13:32;96360.69;;;9.27;71.36
3150;BME280;32503;47.748;8.960;2022-11-24T00:16:09;96363.28;;;9.20;71.89
3150;BME280;32503;47.748;8.960;2022-11-24T00:18:38;96373.63;;;9.18;71.83
3150;BME280;32503;47.748;8.960;2022-11-24T00:21:06;96364.03;;;9.20;72.23
3150;BME280;32503;47.748;8.960;2022-11-24T00:23:33;96366.38;;;9.22;71.78
3150;BME280;32503;47.748;8.960;2022-11-24T00:26:06;96367.94;;;9.23;72.02
3150;BME280;32503;47.748;8.960;2022-11-24T00:28:34;96372.19;;;9.24;71.68
3150;BME280;32503;47.748;8.960;2022-11-24T00:31:03;96359.84;;;9.23;71.85
3150;BME280;32503;47.748;8.960;2022-11-24T00:33:31;96361.41;;;9.24;71.27
3150;BME280;32503;47.748;8.960;2022-11-24T00:36:00;96365.22;;;9.23;71.64
3150;BME280;32503;47.748;8.960;2022-11-24T00:38:27;96367.09;;;9.19;71.33
3150;BME280;32503;47.748;8.960;2022-11-24T00:40:54;96368.47;;;9.09;72.00
3150;BME280;32503;47.748;8.960;2022-11-24T00:43:21;96370.78;;;9.10;71.46
3150;BME280;32503;47.748;8.960;2022-11-24T00:45:48;96368.09;;;9.10;71.56
3150;BME280;32503;47.748;8.960;2022-11-24T00:48:15;96361.06;;;9.06;71.54
3150;BME280;32503;47.748;8.960;2022-11-24T00:50:42;96373.34;;;9.03;71.84
3150;BME280;32503;47.748;8.960;2022-11-24T00:53:10;96377.88;;;8.99;72.01
3150;BME280;32503;47.748;8.960;2022-11-24T00:55:37;96378.31;;;9.01;72.29
3150;BME280;32503;47.748;8.960;2022-11-24T00:58:04;96373.28;;;9.00;72.09
3150;BME280;32503;47.748;8.960;2022-11-24T01:00:31;96379.00;;;8.98;72.58
3150;BME280;32503;47.748;8.960;2022-11-24T01:02:58;96379.00;;;8.98;72.63
3150;BME280;32503;47.748;8.960;2022-11-24T01:05:25;96385.56;;;8.97;72.80
3150;BME280;32503;47.748;8.960;2022-11-24T01:07:52;96369.47;;;8.81;72.80
3150;BME280;32503;47.748;8.960;2022-11-24T01:10:21;96396.69;;;8.96;72.34
3150;BME280;32503;47.748;8.960;2022-11-24T01:12:48;96399.38;;;8.96;72.40
3150;BME280;32503;47.748;8.960;2022-11-24T01:15:16;96407.41;;;8.92;72.66
3150;BME280;32503;47.748;8.960;2022-11-24T01:17:43;96413.06;;;8.87;72.55
3150;BME280;32503;47.748;8.960;2022-11-24T01:20:11;96417.06;;;8.93;72.30
3150;BME280;32503;47.748;8.960;2022-11-24T01:22:38;96420.13;;;8.91;71.99
3150;BME280;32503;47.748;8.960;2022-11-24T01:25:07;96426.13;;;8.85;72.30
3150;BME280;32503;47.748;8.960;2022-11-24T01:27:36;96423.09;;;8.86;72.46
3150;BME280;32503;47.748;8.960;2022-11-24T01:30:05;96427.72;;;8.86;72.55
3150;BME280;32503;47.748;8.960;2022-11-24T01:32:33;96429.09;;;8.80;72.70
3150;BME280;32503;47.748;8.960;2022-11-24T01:35:01;96424.13;;;8.82;72.72
3150;BME280;32503;47.748;8.960;2022-11-24T01:37:28;96426.75;;;8.78;72.43
3150;BME280;32503;47.748;8.960;2022-11-24T01:39:55;96439.47;;;8.78;72.64
3150;BME280;32503;47.748;8.960;2022-11-24T01:42:22;96432.56;;;8.80;72.43
3150;BME280;32503;47.748;8.960;2022-11-24T01:45:27;96431.03;;;8.79;72.19
3150;BME280;32503;47.748;8.960;2022-11-24T01:47:56;96440.56;;;8.77;72.26
3150;BME280;32503;47.748;8.960;2022-11-24T01:50:24;96436.25;;;8.72;72.42
3150;BME280;32503;47.748;8.960;2022-11-24T01:52:53;96431.22;;;8.70;72.51
3150;BME280;32503;47.748;8.960;2022-11-24T01:55:24;96445.81;;;8.69;72.42
3150;BME280;32503;47.748;8.960;2022-11-24T01:57:57;96448.09;;;8.67;72.32
3150;BME280;32503;47.748;8.960;2022-11-24T02:00:27;96436.09;;;8.65;72.27
3150;BME280;32503;47.748;8.960;2022-11-24T02:02:54;96440.00;;;8.67;72.39
3150;BME280;32503;47.748;8.960;2022-11-24T02:05:26;96444.69;;;8.70;71.83
3150;BME280;32503;47.748;8.960;2022-11-24T02:07:56;96413.28;;;8.43;72.37
3150;BME280;32503;47.748;8.960;2022-11-24T02:10:25;96444.81;;;8.58;72.07
3150;BME280;32503;47.748;8.960;2022-11-24T02:12:55;96445.25;;;8.44;72.03
3150;BME280;32503;47.748;8.960;2022-11-24T02:15:24;96447.25;;;8.47;72.62
3150;BME280;32503;47.748;8.960;2022-11-24T02:17:53;96451.16;;;8.50;72.35
3150;BME280;32503;47.748;8.960;2022-11-24T02:20:20;96456.91;;;8.48;72.78
3150;BME280;32503;47.748;8.960;2022-11-24T02:22:53;96444.56;;;8.31;72.70
3150;BME280;32503;47.748;8.960;2022-11-24T02:25:30;96459.06;;;8.43;72.97
3150;BME280;32503;47.748;8.960;2022-11-24T02:28:06;96452.91;;;8.26;73.13
3150;BME280;32503;47.748;8.960;2022-11-24T02:30:35;96459.91;;;8.31;73.78
3150;BME280;32503;47.748;8.960;2022-11-24T02:33:02;96463.59;;;8.39;73.38
3150;BME280;32503;47.748;8.960;2022-11-24T02:35:31;96456.81;;;8.45;73.67
3150;BME280;32503;47.748;8.960;2022-11-24T02:37:58;96451.06;;;8.46;73.50
3150;BME280;32503;47.748;8.960;2022-11-24T02:40:27;96454.63;;;8.50;73.17
3150;BME280;32503;47.748;8.960;2022-11-24T02:43:00;96442.72;;;8.51;73.16
3150;BME280;32503;47.748;8.960;2022-11-24T02:45:30;96457.59;;;8.61;72.95
3150;BME280;32503;47.748;8.960;2022-11-24T02:47:57;96459.13;;;8.62;72.87
3150;BME280;32503;47.748;8.960;2022-11-24T02:50:25;96457.59;;;8.61;73.16
3150;BME280;32503;47.748;8.960;2022-11-24T02:52:52;96464.59;;;8.66;72.88
3150;BME280;32503;47.748;8.960;2022-11-24T02:55:19;96480.41;;;8.67;72.81
3150;BME280;32503;47.748;8.960;2022-11-24T02:57:46;96480.00;;;8.65;72.65
3150;BME280;32503;47.748;8.960;2022-11-24T03:00:14;96483.13;;;8.67;72.87
3150;BME280;32503;47.748;8.960;2022-11-24T03:02:43;96468.38;;;8.61;72.60
3150;BME280;32503;47.748;8.960;2022-11-24T03:05:10;96476.16;;;8.66;72.74
3150;BME280;32503;47.748;8.960;2022-11-24T03:07:37;96479.72;;;8.70;72.39
3150;BME280;32503;47.748;8.960;2022-11-24T03:10:05;96480.50;;;8.71;72.32
3150;BME280;32503;47.748;8.960;2022-11-24T03:12:32;96487.00;;;8.70;72.09
3150;BME280;32503;47.748;8.960;2022-11-24T03:14:59;96483.53;;;8.69;72.02
3150;BME280;32503;47.748;8.960;2022-11-24T03:17:28;96474.44;;;8.58;72.28
3150;BME280;32503;47.748;8.960;2022-11-24T03:19:56;96492.78;;;8.68;72.54
3150;BME280;32503;47.748;8.960;2022-11-24T03:22:24;96489.19;;;8.64;72.37
3150;BME280;32503;47.748;8.960;2022-11-24T03:24:51;96482.00;;;8.68;72.41
3150;BME280;32503;47.748;8.960;2022-11-24T03:27:19;96486.66;;;8.71;72.45
3150;BME280;32503;47.748;8.960;2022-11-24T03:29:46;96480.41;;;8.67;72.41
3150;BME280;32503;47.748;8.960;2022-11-24T03:32:13;96475.13;;;8.71;72.18
3150;BME280;32503;47.748;8.960;2022-11-24T03:34:40;96477.53;;;8.76;72.24
3150;BME280;32503;47.748;8.960;2022-11-24T03:37:09;96483.78;;;8.80;72.22
3150;BME280;32503;47.748;8.960;2022-11-24T03:39:36;96480.75;;;8.82;71.86
3150;BME280;32503;47.748;8.960;2022-11-24T03:42:03;96483.84;;;8.84;71.55
3150;BME280;32503;47.748;8.960;2022-11-24T03:44:30;96485.44;;;8.85;71.52
3150;BME280;32503;47.748;8.960;2022-11-24T03:46:57;96495.88;;;8.86;71.63
3150;BME280;32503;47.748;8.960;2022-11-24T03:49:24;96502.09;;;8.90;71.56
3150;BME280;32503;47.748;8.960;2022-11-24T03:51:51;96497.13;;;8.92;71.38
3150;BME280;32503;47.748;8.960;2022-11-24T03:54:20;96506.44;;;8.95;71.57
3150;BME280;32503;47.748;8.960;2022-11-24T03:56:47;96518.44;;;8.98;71.67
3150;BME280;32503;47.748;8.960;2022-11-24T03:59:14;96512.88;;;8.90;71.73
3150;BME280;32503;47.748;8.960;2022-11-24T04:01:41;96522.72;;;8.99;71.75
3150;BME280;32503;47.748;8.960;2022-11-24T04:04:09;96519.75;;;9.04;71.37
3150;BME280;32503;47.748;8.960;2022-11-24T04:06:37;96524.34;;;9.03;71.53
3150;BME280;32503;47.748;8.960;2022-11-24T04:09:04;96522.88;;;9.06;71.13
3150;BME280;32503;47.748;8.960;2022-11-24T04:11:33;96518.25;;;9.06;71.18
3150;BME280;32503;47.748;8.960;2022-11-24T04:14:17;96518.25;;;9.06;71.34
3150;BME280;32503;47.748;8.960;2022-11-24T04:16:45;96516.69;;;9.05;71.35
3150;BME280;32503;47.748;8.960;2022-11-24T04:19:12;96516.69;;;9.05;70.93
3150;BME280;32503;47.748;8.960;2022-11-24T04:21:39;96525.91;;;9.04;71.10
3150;BME280;32503;47.748;8.960;2022-11-24T04:24:07;96532.00;;;9.01;70.86
3150;BME280;32503;47.748;8.960;2022-11-24T04:26:35;96525.75;;;8.97;71.04
3150;BME280;32503;47.748;8.960;2022-11-24T04:29:02;96526.94;;;9.00;70.97
3150;BME280;32503;47.748;8.960;2022-11-24T04:31:29;96529.56;;;8.96;70.93
3150;BME280;32503;47.748;8.960;2022-11-24T04:33:56;96552.72;;;8.97;70.75
3150;BME280;32503;47.748;8.960;2022-11-24T04:36:23;96553.50;;;8.98;71.08
3150;BME280;32503;47.748;8.960;2022-11-24T04:38:51;96562.25;;;8.95;70.71
3150;BME280;32503;47.748;8.960;2022-11-24T04:41:18;96549.94;;;8.94;70.58
3150;BME280;32503;47.748;8.960;2022-11-24T04:43:49;96561.84;;;8.92;70.28
3150;BME280;32503;47.748;8.960;2022-11-24T04:46:16;96559.31;;;8.84;70.60
3150;BME280;32503;47.748;8.960;2022-11-24T04:48:43;96567.34;;;8.80;70.79
3150;BME280;32503;47.748;8.960;2022-11-24T04:51:12;96567.59;;;8.75;71.04
3150;BME280;32503;47.748;8.960;2022-11-24T04:53:40;96570.66;;;8.73;70.89
3150;BME280;32503;47.748;8.960;2022-11-24T04:56:08;96577.59;;;8.75;71.07
3150;BME280;32503;47.748;8.960;2022-11-24T04:58:35;96565.53;;;8.68;70.81
3150;BME280;32503;47.748;8.960;2022-11-24T05:01:07;96581.72;;;8.68;70.95
3150;BME280;32503;47.748;8.960;2022-11-24T05:03:35;96582.81;;;8.67;70.92
3150;BME280;32503;47.748;8.960;2022-11-24T05:06:02;96582.41;;;8.65;71.09
3150;BME280;32503;47.748;8.960;2022-11-24T05:08:29;96593.50;;;8.64;71.57
3150;BME280;32503;47.748;8.960;2022-11-24T05:10:57;96594.13;;;8.57;71.33
3150;BME280;32503;47.748;8.960;2022-11-24T05:13:24;96587.19;;;8.56;71.43
3150;BME280;32503;47.748;8.960;2022-11-24T05:15:51;96590.66;;;8.57;71.31
3150;BME280;32503;47.748;8.960;2022-11-24T05:18:19;96584.50;;;8.56;71.18
3150;BME280;32503;47.748;8.960;2022-11-24T05:20:47;96593.44;;;8.60;71.18
3150;BME280;32503;47.748;8.960;2022-11-24T05:23:14;96597.69;;;8.61;71.10
3150;BME280;32503;47.748;8.960;2022-11-24T05:25:41;96598.81;;;8.60;71.11
3150;BME280;32503;47.748;8.960;2022-11-24T05:28:08;96593.34;;;8.57;71.10
3150;BME280;32503;47.748;8.960;2022-11-24T05:30:36;96601.16;;;8.62;71.03
3150;BME280;32503;47.748;8.960;2022-11-24T05:33:05;96597.25;;;8.59;71.04
3150;BME280;32503;47.748;8.960;2022-11-24T05:35:35;96608.91;;;8.63;70.81
3150;BME280;32503;47.748;8.960;2022-11-24T05:38:03;96601.44;;;8.57;70.94
3150;BME280;32503;47.748;8.960;2022-11-24T05:40:30;96600.66;;;8.56;70.89
3150;BME280;32503;47.748;8.960;2022-11-24T05:42:58;96580.94;;;8.40;71.08
3150;BME280;32503;47.748;8.960;2022-11-24T05:45:25;96608.28;;;8.54;70.96
3150;BME280;32503;47.748;8.960;2022-11-24T05:47:52;96608.56;;;8.49;71.40
3150;BME280;32503;47.748;8.960;2022-11-24T05:50:21;96613.47;;;8.47;71.19
3150;BME280;32503;47.748;8.960;2022-11-24T05:52:49;96616.63;;;8.49;71.34
3150;BME280;32503;47.748;8.960;2022-11-24T05:55:17;96615.50;;;8.50;71.03
3150;BME280;32503;47.748;8.960;2022-11-24T05:57:45;96609.41;;;8.53;71.03
3150;BME280;32503;47.748;8.960;2022-11-24T06:00:13;96604.91;;;8.57;71.00
3150;BME280;32503;47.748;8.960;2022-11-24T06:02:42;96598.66;;;8.53;70.90
3150;BME280;32503;47.748;8.960;2022-11-24T06:05:09;96603.59;;;8.51;70.61
3150;BME280;32503;47.748;8.960;2022-11-24T06:07:36;96608.19;;;8.50;70.95
3150;BME280;32503;47.748;8.960;2022-11-24T06:10:05;96607.66;;;8.45;70.91
3150;BME280;32503;47.748;8.960;2022-11-24T06:12:32;96610.00;;;8.46;70.78
3150;BME280;32503;47.748;8.960;2022-11-24T06:15:00;96615.75;;;8.45;71.13
3150;BME280;32503;47.748;8.960;2022-11-24T06:17:27;96615.75;;;8.45;70.86
3150;BME280;32503;47.748;8.960;2022-11-24T06:19:54;96617.75;;;8.48;71.15
3150;BME280;32503;47.748;8.960;2022-11-24T06:22:21;96616.63;;;8.49;71.03
3150;BME280;32503;47.748;8.960;2022-11-24T06:24:48;96616.19;;;8.47;71.07
3150;BME280;32503;47.748;8.960;2022-11-24T06:27:17;96620.88;;;8.50;70.81
3150;BME280;32503;47.748;8.960;2022-11-24T06:29:44;96579.47;;;8.26;71.11
3150;BME280;32503;47.748;8.960;2022-11-24T06:32:12;96630.28;;;8.56;70.94
3150;BME280;32503;47.748;8.960;2022-11-24T06:34:39;96636.53;;;8.60;70.97
3150;BME280;32503;47.748;8.960;2022-11-24T06:37:06;96634.97;;;8.59;70.79
3150;BME280;32503;47.748;8.960;2022-11-24T06:39:34;96633.41;;;8.58;71.07
3150;BME280;32503;47.748;8.960;2022-11-24T06:42:01;96627.13;;;8.54;70.74
3150;BME280;32503;47.748;8.960;2022-11-24T06:44:29;96637.31;;;8.61;70.52
3150;BME280;32503;47.748;8.960;2022-11-24T06:46:56;96634.72;;;8.64;70.63
3150;BME280;32503;47.748;8.960;2022-11-24T06:49:23;96633.59;;;8.65;70.74
3150;BME280;32503;47.748;8.960;2022-11-24T06:51:50;96632.91;;;8.68;70.68
3150;BME280;32503;47.748;8.960;2022-11-24T06:54:19;96633.84;;;8.76;70.27
3150;BME280;32503;47.748;8.960;2022-11-24T06:56:46;96638.66;;;8.83;70.21
3150;BME280;32503;47.748;8.960;2022-11-24T06:59:19;96631.69;;;8.98;69.86
3150;BME280;32503;47.748;8.960;2022-11-24T07:01:48;96635.06;;;9.10;69.07
3150;BME280;32503;47.748;8.960;2022-11-24T07:04:15;96635.81;;;9.27;69.02
3150;BME280;32503;47.748;8.960;2022-11-24T07:06:43;96644.50;;;9.36;68.56
3150;BME280;32503;47.748;8.960;2022-11-24T07:09:12;96639.72;;;9.29;68.26
3150;BME280;32503;47.748;8.960;2022-11-24T07:11:40;96632.88;;;9.32;67.95
3150;BME280;32503;47.748;8.960;2022-11-24T07:14:08;96639.03;;;9.33;68.16
3150;BME280;32503;47.748;8.960;2022-11-24T07:16:35;96635.28;;;9.37;67.86
3150;BME280;32503;47.748;8.960;2022-11-24T07:19:03;96636.06;;;9.38;67.78
3150;BME280;32503;47.748;8.960;2022-11-24T07:21:30;96637.72;;;9.42;67.51
3150;BME280;32503;47.748;8.960;2022-11-24T07:23:58;96640.03;;;9.44;67.83
3150;BME280;32503;47.748;8.960;2022-11-24T07:26:25;96627.28;;;9.41;67.47
3150;BME280;32503;47.748;8.960;2022-11-24T07:28:52;96643.53;;;9.44;67.38
3150;BME280;32503;47.748;8.960;2022-11-24T07:31:21;96646.41;;;9.52;67.07
3150;BME280;32503;47.748;8.960;2022-11-24T07:33:50;96647.66;;;9.58;66.66
3150;BME280;32503;47.748;8.960;2022-11-24T07:36:20;96635.44;;;9.44;67.05
3150;BME280;32503;47.748;8.960;2022-11-24T07:38:47;96659.28;;;9.58;66.88
3150;BME280;32503;47.748;8.960;2022-11-24T07:41:16;96675.53;;;9.62;67.29
3150;BME280;32503;47.748;8.960;2022-11-24T07:43:44;96664.38;;;9.63;66.92
3150;BME280;32503;47.748;8.960;2022-11-24T07:46:13;96660.97;;;9.66;66.86
3150;BME280;32503;47.748;8.960;2022-11-24T07:48:41;96663.03;;;9.73;66.65
3150;BME280;32503;47.748;8.960;2022-11-24T07:51:08;96661.94;;;9.74;66.93
3150;BME280;32503;47.748;8.960;2022-11-24T07:53:37;96670.03;;;9.74;66.09
3150;BME280;32503;47.748;8.960;2022-11-24T07:56:06;96671.28;;;9.80;66.33
3150;BME280;32503;47.748;8.960;2022-11-24T07:58:35;96676.28;;;9.78;66.91
3150;BME280;32503;47.748;8.960;2022-11-24T08:01:14;96674.84;;;9.84;66.21
3150;BME280;32503;47.748;8.960;2022-11-24T08:03:43;96673.66;;;9.82;67.60
3150;BME280;32503;47.748;8.960;2022-11-24T08:06:13;96660.56;;;9.84;67.02
3150;BME280;32503;47.748;8.960;2022-11-24T08:08:42;96675.06;;;9.95;66.84
3150;BME280;32503;47.748;8.960;2022-11-24T08:11:11;96672.47;;;9.99;66.50
3150;BME280;32503;47.748;8.960;2022-11-24T08:13:39;96671.72;;;10.02;66.66
3150;BME280;32503;47.748;8.960;2022-11-24T08:16:08;96674.09;;;10.03;66.77
3150;BME280;32503;47.748;8.960;2022-11-24T08:18:37;96687.88;;;9.98;67.03
3150;BME280;32503;47.748;8.960;2022-11-24T08:21:05;96695.13;;;9.94;67.44
3150;BME280;32503;47.748;8.960;2022-11-24T08:23:33;96697.47;;;9.96;67.82
3150;BME280;32503;47.748;8.960;2022-11-24T08:26:04;96703.72;;;10.00;67.47
3150;BME280;32503;47.748;8.960;2022-11-24T08:28:34;96695.53;;;9.96;68.19
3150;BME280;32503;47.748;8.960;2022-11-24T08:31:03;96696.25;;;9.93;69.57
3150;BME280;32503;47.748;8.960;2022-11-24T08:33:31;96699.28;;;9.92;69.32
3150;BME280;32503;47.748;8.960;2022-11-24T08:36:03;96705.00;;;9.86;70.51
3150;BME280;32503;47.748;8.960;2022-11-24T08:38:30;96712.22;;;9.82;70.71
3150;BME280;32503;47.748;8.960;2022-11-24T08:41:00;96717.88;;;9.77;71.10
3150;BME280;32503;47.748;8.960;2022-11-24T08:43:29;96713.63;;;9.76;70.96
3150;BME280;32503;47.748;8.960;2022-11-24T08:45:59;96709.63;;;9.70;71.65
3150;BME280;32503;47.748;8.960;2022-11-24T08:48:26;96722.19;;;9.62;71.96
3150;BME280;32503;47.748;8.960;2022-11-24T08:50:54;96723.66;;;9.60;72.29
3150;BME280;32503;47.748;8.960;2022-11-24T08:53:21;96727.59;;;9.62;71.95
3150;BME280;32503;47.748;8.960;2022-11-24T08:55:48;96733.06;;;9.66;71.92
3150;BME280;32503;47.748;8.960;2022-11-24T08:58:15;96736.47;;;9.63;72.45
3150;BME280;32503;47.748;8.960;2022-11-24T09:00:43;96732.31;;;9.65;71.88
3150;BME280;32503;47.748;8.960;2022-11-24T09:03:11;96746.06;;;9.60;71.94
3150;BME280;32503;47.748;8.960;2022-11-24T09:05:38;96741.88;;;9.63;71.54
3150;BME280;32503;47.748;8.960;2022-11-24T09:08:05;96756.69;;;9.69;71.64
3150;BME280;32503;47.748;8.960;2022-11-24T09:10:33;96731.66;;;9.72;71.84
3150;BME280;32503;47.748;8.960;2022-11-24T09:13:01;96739.16;;;9.63;72.05
3150;BME280;32503;47.748;8.960;2022-11-24T09:15:28;96754.75;;;9.70;71.92
3150;BME280;32503;47.748;8.960;2022-11-24T09:17:56;96761.28;;;9.68;72.52
3150;BME280;32503;47.748;8.960;2022-11-24T09:20:23;96773.28;;;9.71;72.39
3150;BME280;32503;47.748;8.960;2022-11-24T09:22:50;96774.59;;;9.77;72.35
3150;BME280;32503;47.748;8.960;2022-11-24T09:25:19;96760.38;;;9.80;71.85
3150;BME280;32503;47.748;8.960;2022-11-24T09:27:48;96717.06;;;9.57;71.74
3150;BME280;32503;47.748;8.960;2022-11-24T09:30:15;96764.47;;;9.90;72.06
3150;BME280;32503;47.748;8.960;2022-11-24T09:32:43;96761.84;;;9.94;71.46
3150;BME280;32503;47.748;8.960;2022-11-24T09:35:11;96750.91;;;9.86;72.30
3150;BME280;32503;47.748;8.960;2022-11-24T09:37:38;96755.31;;;9.95;71.90
3150;BME280;32503;47.748;8.960;2022-11-24T09:40:10;96752.47;;;10.07;71.86
3150;BME280;32503;47.748;8.960;2022-11-24T09:42:48;96763.00;;;10.12;71.43
3150;BME280;32503;47.748;8.960;2022-11-24T09:45:29;96776.81;;;10.27;71.98
3150;BME280;32503;47.748;8.960;2022-11-24T09:48:06;96767.63;;;10.67;71.54
3150;BME280;32503;47.748;8.960;2022-11-24T09:50:37;96769.69;;;11.16;70.93
3150;BME280;32503;47.748;8.960;2022-11-24T09:53:09;96770.47;;;11.39;69.33
3150;BME280;32503;47.748;8.960;2022-11-24T09:55:41;96775.38;;;11.57;68.15
3150;BME280;32503;47.748;8.960;2022-11-24T09:58:29;96770.50;;;11.66;66.75
3150;BME280;32503;47.748;8.960;2022-11-24T10:00:57;96772.47;;;11.69;66.79
3150;BME280;32503;47.748;8.960;2022-11-24T10:03:31;96769.47;;;11.74;65.90
3150;BME280;32503;47.748;8.960;2022-11-24T10:06:04;96763.88;;;12.13;65.21
3150;BME280;32503;47.748;8.960;2022-11-24T10:11:41;96765.88;;;12.50;63.48
3150;BME280;32503;47.748;8.960;2022-11-24T10:14:49;96788.47;;;12.92;62.28
3150;BME280;32503;47.748;8.960;2022-11-24T10:20:24;96787.66;;;13.29;61.92
3150;BME280;32503;47.748;8.960;2022-11-24T10:23:07;96799.41;;;13.37;61.17
3150;BME280;32503;47.748;8.960;2022-11-24T10:25:45;96784.59;;;13.31;61.01
3150;BME280;32503;47.748;8.960;2022-11-24T10:28:15;96787.44;;;13.07;61.01
3150;BME280;32503;47.748;8.960;2022-11-24T10:30:42;96793.13;;;12.95;61.48
3150;BME280;32503;47.748;8.960;2022-11-24T10:33:16;96781.44;;;12.54;61.69
3150;BME280;32503;47.748;8.960;2022-11-24T10:35:48;96790.69;;;12.86;62.22
3150;BME280;32503;47.748;8.960;2022-11-24T10:38:30;96784.34;;;13.09;61.87
3150;BME280;32503;47.748;8.960;2022-11-24T10:41:04;96800.94;;;13.34;60.17
3150;BME280;32503;47.748;8.960;2022-11-24T10:43:33;96797.22;;;13.53;60.05
3150;BME280;32503;47.748;8.960;2022-11-24T10:46:10;96798.13;;;13.68;59.56
3150;BME280;32503;47.748;8.960;2022-11-24T10:48:44;96793.56;;;13.83;58.80
3150;BME280;32503;47.748;8.960;2022-11-24T10:51:46;96806.50;;;14.00;58.72
3150;BME280;32503;47.748;8.960;2022-11-24T10:54:21;96800.00;;;14.16;58.03
3150;BME280;32503;47.748;8.960;2022-11-24T10:56:51;96796.91;;;14.17;57.45
3150;BME280;32503;47.748;8.960;2022-11-24T10:59:36;96800.69;;;14.02;57.73
3150;BME280;32503;47.748;8.960;2022-11-24T11:02:44;96796.84;;;14.07;57.28
3150;BME280;32503;47.748;8.960;2022-11-24T11:05:35;96802.69;;;14.09;57.55
3150;BME280;32503;47.748;8.960;2022-11-24T11:08:25;96805.84;;;14.18;57.23
3150;BME280;32503;47.748;8.960;2022-11-24T11:11:18;96802.81;;;14.30;56.70
3150;BME280;32503;47.748;8.960;2022-11-24T11:13:54;96790.38;;;14.33;56.62
3150;BME280;32503;47.748;8.960;2022-11-24T11:16:32;96799.31;;;14.30;57.15
3150;BME280;32503;47.748;8.960;2022-11-24T11:19:02;96793.94;;;14.40;56.43
3150;BME280;32503;47.748;8.960;2022-11-24T11:21:34;96784.66;;;14.52;56.65
3150;BME280;32503;47.748;8.960;2022-11-24T11:24:04;96765.91;;;14.36;55.78
3150;BME280;32503;47.748;8.960;2022-11-24T11:26:36;96804.88;;;14.51;55.66
3150;BME280;32503;47.748;8.960;2022-11-24T11:29:15;96798.03;;;14.83;55.92
3150;BME280;32503;47.748;8.960;2022-11-24T11:31:59;96769.19;;;14.64;54.96
3150;BME280;32503;47.748;8.960;2022-11-24T11:34:33;96780.50;;;14.76;54.71
3150;BME280;32503;47.748;8.960;2022-11-24T11:37:02;96773.53;;;14.75;54.59
3150;BME280;32503;47.748;8.960;2022-11-24T11:39:32;96807.34;;;14.82;54.94
3150;BME280;32503;47.748;8.960;2022-11-24T11:42:13;96806.56;;;14.77;54.93
3150;BME280;32503;47.748;8.960;2022-11-24T11:44:47;96807.38;;;14.89;54.85
3150;BME280;32503;47.748;8.960;2022-11-24T11:47:22;96805.44;;;14.93;54.48
3150;BME280;32503;47.748;8.960;2022-11-24T11:49:50;96813.22;;;14.94;54.90
3150;BME280;32503;47.748;8.960;2022-11-24T11:53:04;96808.22;;;15.07;53.86
3150;BME280;32503;47.748;8.960;2022-11-24T11:55:52;96771.16;;;14.70;54.04
3150;BME280;32503;47.748;8.960;2022-11-24T11:58:51;96806.66;;;15.03;54.93
3150;BME280;32503;47.748;8.960;2022-11-24T12:01:37;96815.56;;;15.00;55.14
3150;BME280;32503;47.748;8.960;2022-11-24T12:04:15;96820.66;;;15.05;54.57
3150;BME280;32503;47.748;8.960;2022-11-24T12:07:20;96808.63;;;15.09;53.81
3150;BME280;32503;47.748;8.960;2022-11-24T12:09:59;96819.53;;;15.16;53.94
3150;BME280;32503;47.748;8.960;2022-11-24T12:12:54;96818.34;;;15.21;53.13
3150;BME280;32503;47.748;8.960;2022-11-24T12:15:32;96800.47;;;15.24;52.78
3150;BME280;32503;47.748;8.960;2022-11-24T12:18:14;96821.88;;;15.25;52.10
3150;BME280;32503;47.748;8.960;2022-11-24T12:20:55;96821.06;;;15.21;53.24
3150;BME280;32503;47.748;8.960;2022-11-24T12:23:40;96793.38;;;14.83;53.24
3150;BME280;32503;47.748;8.960;2022-11-24T12:26:19;96812.78;;;14.82;53.12
3150;BME280;32503;47.748;8.960;2022-11-24T12:29:10;96827.53;;;14.73;53.11
3150;BME280;32503;47.748;8.960;2022-11-24T12:31:50;96800.94;;;14.49;53.38
3150;BME280;32503;47.748;8.960;2022-11-24T12:34:33;96825.84;;;14.51;53.22
3150;BME280;32503;47.748;8.960;2022-11-24T12:40:07;96819.59;;;14.47;53.78
3150;BME280;32503;47.748;8.960;2022-11-24T12:42:48;96823.81;;;14.33;53.75
3150;BME280;32503;47.748;8.960;2022-11-24T12:45:23;96827.75;;;14.47;53.61
3150;BME280;32503;47.748;8.960;2022-11-24T12:48:18;96810.63;;;14.39;53.24
3150;BME280;32503;47.748;8.960;2022-11-24T12:50:53;96828.53;;;14.44;53.44
3150;BME280;32503;47.748;8.960;2022-11-24T12:53:25;96832.75;;;14.37;53.39
3150;BME280;32503;47.748;8.960;2022-11-24T12:56:03;96831.94;;;14.30;53.70
3150;BME280;32503;47.748;8.960;2022-11-24T12:58:38;96831.16;;;14.33;54.07
3150;BME280;32503;47.748;8.960;2022-11-24T13:01:15;96835.03;;;14.25;54.46
3150;BME280;32503;47.748;8.960;2022-11-24T13:03:58;96831.94;;;14.26;54.65
3150;BME280;32503;47.748;8.960;2022-11-24T13:06:38;96822.91;;;14.15;54.31
3150;BME280;32503;47.748;8.960;2022-11-24T13:09:11;96828.66;;;14.02;54.20
3150;BME280;32503;47.748;8.960;2022-11-24T13:11:42;96832.53;;;14.01;53.89
3150;BME280;32503;47.748;8.960;2022-11-24T13:14:20;96824.59;;;13.78;54.01
3150;BME280;32503;47.748;8.960;2022-11-24T13:16:50;96823.00;;;13.74;53.88
3150;BME280;32503;47.748;8.960;2022-11-24T13:19:21;96830.28;;;13.62;54.43
3150;BME280;32503;47.748;8.960;2022-11-24T13:22:08;96828.31;;;13.59;54.42
3150;BME280;32503;47.748;8.960;2022-11-24T13:24:39;96828.31;;;13.59;54.63
3150;BME280;32503;47.748;8.960;2022-11-24T13:27:38;96846.78;;;13.43;54.77
3150;BME280;32503;47.748;8.960;2022-11-24T13:30:52;96853.78;;;13.44;54.96
3150;BME280;32503;47.748;8.960;2022-11-24T13:33:43;96856.81;;;13.39;54.91
3150;BME280;32503;47.748;8.960;2022-11-24T13:36:31;96849.00;;;13.34;54.66
3150;BME280;32503;47.748;8.960;2022-11-24T13:39:01;96854.25;;;13.19;54.86
3150;BME280;32503;47.748;8.960;2022-11-24T13:42:05;96844.91;;;13.13;54.60
3150;BME280;32503;47.748;8.960;2022-11-24T13:44:51;96842.19;;;13.13;54.52
3150;BME280;32503;47.748;8.960;2022-11-24T13:47:37;96838.81;;;12.89;55.01
3150;BME280;32503;47.748;8.960;2022-11-24T13:50:20;96833.38;;;12.89;55.29
3150;BME280;32503;47.748;8.960;2022-11-24T13:52:53;96850.88;;;12.92;55.83